Time;durP1;ratioP1;P1;durP2;ratioP2;P2;SDS_P1;SDS_P2;PMS_P1;PMS_P2;Temp;Humidity;BMP_temperature;BMP_pressure;BME280_temperature;BME280_humidity;BME280_pressure;Samples;Min_cycle;Max_cycle;Signal;HPM_P1;HPM_P2
2022/10/09 00:01:15;;;;;;;16.75;5.50;;;8.00;99.90;;;;;;5090297;28;20129;-44
2022/10/09 00:03:42;;;;;;;12.13;5.43;;;8.10;99.90;;;;;;5090520;28;20040;-46
2022/10/09 00:06:11;;;;;;;10.25;5.53;;;8.10;99.90;;;;;;5088885;28;20044;-44
2022/10/09 00:08:38;;;;;;;10.30;4.80;;;7.90;99.90;;;;;;5089389;28;20089;-45
2022/10/09 00:11:08;;;;;;;10.05;4.85;;;7.90;99.90;;;;;;5090189;28;20032;-44
2022/10/09 00:13:35;;;;;;;12.13;5.20;;;8.10;99.90;;;;;;5090238;28;20036;-43
2022/10/09 00:16:02;;;;;;;11.88;4.70;;;8.10;99.90;;;;;;5089708;28;20079;-44
2022/10/09 00:18:28;;;;;;;13.18;4.90;;;7.90;99.90;;;;;;5088841;28;20032;-43
2022/10/09 00:20:54;;;;;;;11.90;5.32;;;8.10;99.90;;;;;;5088932;28;20123;-43
2022/10/09 00:23:19;;;;;;;11.73;5.20;;;8.10;99.90;;;;;;5089866;28;20047;-43
2022/10/09 00:25:57;;;;;;;15.15;5.38;;;8.00;99.90;;;;;;5088618;28;20496;-43
2022/10/09 00:28:24;;;;;;;10.95;4.90;;;8.00;99.90;;;;;;5089735;28;20036;-44
2022/10/09 00:30:51;;;;;;;13.57;4.82;;;7.80;99.90;;;;;;5089624;28;20052;-44
2022/10/09 00:33:17;;;;;;;12.73;5.07;;;7.90;99.90;;;;;;5089779;28;20059;-43
2022/10/09 00:35:43;;;;;;;13.18;4.47;;;7.90;99.90;;;;;;5089788;28;20047;-43
2022/10/09 00:38:10;;;;;;;9.15;4.65;;;7.80;99.90;;;;;;5089471;28;20024;-43
2022/10/09 00:40:36;;;;;;;11.90;5.28;;;7.90;99.90;;;;;;5089827;28;20589;-44
2022/10/09 00:43:03;;;;;;;10.27;4.70;;;7.90;99.90;;;;;;5088614;28;20085;-43
2022/10/09 00:45:30;;;;;;;11.15;4.93;;;7.90;99.90;;;;;;5089396;28;20036;-44
2022/10/09 00:48:00;;;;;;;14.55;4.85;;;7.90;99.90;;;;;;5089618;28;20169;-46
2022/10/09 00:50:37;;;;;;;14.82;4.72;;;7.80;99.90;;;;;;5089847;28;20032;-43
2022/10/09 00:53:03;;;;;;;14.52;5.43;;;7.80;99.90;;;;;;5089898;28;20177;-43
2022/10/09 00:55:30;;;;;;;12.05;4.70;;;7.80;99.90;;;;;;5089282;28;20507;-43
2022/10/09 00:57:58;;;;;;;15.60;4.88;;;7.90;99.90;;;;;;5089499;28;20078;-47
2022/10/09 01:00:25;;;;;;;13.63;4.65;;;7.60;99.90;;;;;;5089689;28;20063;-44
2022/10/09 01:02:52;;;;;;;12.95;4.80;;;7.90;99.90;;;;;;5089674;28;20051;-45
2022/10/09 01:05:18;;;;;;;12.25;4.72;;;7.70;99.90;;;;;;5089600;28;20048;-45
2022/10/09 01:07:56;;;;;;;9.95;4.53;;;7.90;99.90;;;;;;5090829;28;20057;-45
2022/10/09 01:10:40;;;;;;;10.65;4.47;;;7.80;99.90;;;;;;5093240;28;20044;-46
2022/10/09 01:13:27;;;;;;;9.27;4.68;;;7.80;99.90;;;;;;5093285;28;20040;-45
2022/10/09 01:16:15;;;;;;;10.68;4.65;;;7.80;99.90;;;;;;5093154;28;20067;-43
2022/10/09 01:18:41;;;;;;;12.50;4.80;;;7.60;99.90;;;;;;5084301;28;20047;-44
2022/10/09 01:21:22;;;;;;;9.80;4.57;;;7.60;99.90;;;;;;5093014;28;20040;-43
2022/10/09 01:24:15;;;;;;;12.85;4.35;;;7.80;99.90;;;;;;5093128;28;20071;-46
2022/10/09 01:26:55;;;;;;;12.50;4.65;;;7.70;99.90;;;;;;5092751;28;20130;-46
2022/10/09 01:29:25;;;;;;;15.65;5.50;;;7.60;99.90;;;;;;5092905;28;20418;-45
2022/10/09 01:31:51;;;;;;;12.27;4.60;;;7.50;99.90;;;;;;5092398;28;20048;-45
2022/10/09 01:34:19;;;;;;;13.60;4.82;;;7.60;99.90;;;;;;5092747;28;20032;-44
2022/10/09 01:36:45;;;;;;;13.68;4.55;;;7.50;99.90;;;;;;5091969;28;20035;-44
2022/10/09 01:39:17;;;;;;;10.60;4.45;;;7.50;99.90;;;;;;5092859;28;20028;-44
2022/10/09 01:41:44;;;;;;;9.80;4.50;;;7.60;99.90;;;;;;5091642;28;20036;-45
2022/10/09 01:44:18;;;;;;;12.10;4.53;;;7.40;99.90;;;;;;5092688;28;20643;-44
2022/10/09 01:46:44;;;;;;;9.60;4.35;;;7.40;99.90;;;;;;5090796;28;20028;-44
2022/10/09 01:49:23;;;;;;;12.65;4.18;;;7.50;99.90;;;;;;5092570;28;20076;-44
2022/10/09 01:52:07;;;;;;;10.48;5.05;;;7.40;99.90;;;;;;5092077;28;20474;-43
2022/10/09 01:54:38;;;;;;;8.57;4.38;;;7.50;99.90;;;;;;5092489;28;20119;-44
2022/10/09 01:57:07;;;;;;;12.60;4.75;;;7.80;99.90;;;;;;5092296;28;20114;-42
2022/10/09 01:59:37;;;;;;;9.70;3.90;;;7.50;99.90;;;;;;5090714;28;20039;-44
2022/10/09 02:02:06;;;;;;;12.30;4.70;;;7.40;99.90;;;;;;5092282;28;20044;-44
2022/10/09 02:04:32;;;;;;;11.80;4.80;;;7.50;99.90;;;;;;5091058;28;20093;-44
2022/10/09 02:06:58;;;;;;;13.48;4.82;;;7.30;99.90;;;;;;5091908;28;20395;-43
2022/10/09 02:09:24;;;;;;;12.98;4.35;;;7.30;99.90;;;;;;5091678;28;20043;-45
2022/10/09 02:11:56;;;;;;;11.07;4.50;;;7.30;99.90;;;;;;5092111;28;20048;-44
2022/10/09 02:14:21;;;;;;;12.40;4.28;;;7.30;99.90;;;;;;5092037;28;20481;-43
2022/10/09 02:16:55;;;;;;;9.65;4.20;;;7.40;99.90;;;;;;5090482;28;20040;-48
2022/10/09 02:19:36;;;;;;;9.02;4.05;;;7.30;99.90;;;;;;5090951;28;20071;-45
2022/10/09 02:22:11;;;;;;;12.38;4.32;;;7.40;99.90;;;;;;5091592;28;20036;-47
2022/10/09 02:24:38;;;;;;;9.30;4.80;;;7.40;99.90;;;;;;5091545;28;20368;-44
2022/10/09 02:27:05;;;;;;;10.05;4.35;;;7.20;99.90;;;;;;5090222;28;20048;-43
2022/10/09 02:29:31;;;;;;;15.13;4.32;;;7.40;99.90;;;;;;5090010;28;20040;-46
2022/10/09 02:31:57;;;;;;;8.32;4.65;;;7.20;99.90;;;;;;5091281;28;20144;-46
2022/10/09 02:34:23;;;;;;;9.75;4.20;;;7.10;99.90;;;;;;5091447;28;20047;-45
2022/10/09 02:36:50;;;;;;;11.27;4.70;;;7.30;99.90;;;;;;5091217;28;20138;-46
2022/10/09 02:39:17;;;;;;;7.93;4.30;;;7.10;99.90;;;;;;5073093;28;20128;-44
2022/10/09 02:41:42;;;;;;;11.88;4.55;;;7.30;99.90;;;;;;5091057;28;20040;-45
2022/10/09 02:44:08;;;;;;;17.00;5.20;;;7.20;99.90;;;;;;5091322;28;20097;-43
2022/10/09 02:46:34;;;;;;;9.55;4.00;;;7.20;99.90;;;;;;5091439;28;20050;-44
2022/10/09 02:49:00;;;;;;;11.38;4.15;;;7.10;99.90;;;;;;5090782;28;20031;-47
2022/10/09 02:51:26;;;;;;;12.55;4.38;;;7.20;99.90;;;;;;5089764;28;20048;-46
2022/10/09 02:53:52;;;;;;;9.38;4.07;;;7.20;99.90;;;;;;5089657;28;20130;-44
2022/10/09 02:56:19;;;;;;;8.75;4.28;;;7.10;99.90;;;;;;5090048;28;20051;-44
2022/10/09 02:58:44;;;;;;;11.02;4.03;;;7.10;99.90;;;;;;5091260;28;20032;-45
2022/10/09 03:01:11;;;;;;;11.68;4.20;;;7.10;99.90;;;;;;5090840;28;20043;-43
2022/10/09 03:03:36;;;;;;;10.55;4.82;;;7.20;99.90;;;;;;5091153;28;20036;-45
2022/10/09 03:06:10;;;;;;;9.48;4.47;;;7.20;99.90;;;;;;5090588;28;20058;-43
2022/10/09 03:08:42;;;;;;;11.50;4.95;;;7.20;99.90;;;;;;5090631;28;20042;-44
2022/10/09 03:11:08;;;;;;;12.63;5.05;;;6.90;99.90;;;;;;5090602;28;20043;-48
2022/10/09 03:13:35;;;;;;;9.77;5.00;;;6.90;99.90;;;;;;5090851;28;20475;-48
2022/10/09 03:16:05;;;;;;;13.75;4.70;;;7.20;99.90;;;;;;5090848;28;20040;-43
2022/10/09 03:18:31;;;;;;;13.60;5.45;;;7.20;99.90;;;;;;5090444;28;20055;-45
2022/10/09 03:20:57;;;;;;;11.60;4.70;;;6.90;99.90;;;;;;5090283;28;20034;-45
2022/10/09 03:23:23;;;;;;;10.35;4.35;;;7.20;99.90;;;;;;5090721;28;20123;-44
2022/10/09 03:26:00;;;;;;;8.85;4.53;;;7.00;99.90;;;;;;5090897;28;20051;-43
2022/10/09 03:28:26;;;;;;;9.93;4.43;;;6.90;99.90;;;;;;5089087;28;20485;-44
2022/10/09 03:30:53;;;;;;;11.18;4.72;;;7.10;99.90;;;;;;5087869;28;20082;-46
2022/10/09 03:33:19;;;;;;;12.90;4.32;;;6.80;99.90;;;;;;5090499;28;20125;-43
2022/10/09 03:35:47;;;;;;;8.70;4.03;;;6.80;99.90;;;;;;5090696;28;20093;-43
2022/10/09 03:38:13;;;;;;;8.73;4.40;;;6.80;99.90;;;;;;5090109;28;20043;-47
2022/10/09 03:40:39;;;;;;;10.55;4.90;;;6.80;99.90;;;;;;5090633;28;20036;-43
2022/10/09 03:43:05;;;;;;;10.65;4.88;;;6.80;99.90;;;;;;5088713;28;20047;-43
2022/10/09 03:45:30;;;;;;;9.70;4.75;;;6.70;99.90;;;;;;5090618;28;20047;-43
2022/10/09 03:47:57;;;;;;;6.97;4.10;;;7.00;99.90;;;;;;5090543;28;20123;-42
2022/10/09 03:50:23;;;;;;;10.40;4.30;;;6.80;99.90;;;;;;5089961;28;20128;-44
2022/10/09 03:52:48;;;;;;;11.05;4.70;;;6.80;99.90;;;;;;5088835;28;20036;-43
2022/10/09 03:55:14;;;;;;;12.40;4.35;;;6.90;99.90;;;;;;5090320;28;20051;-45
2022/10/09 03:57:40;;;;;;;9.00;4.80;;;6.70;99.90;;;;;;5090292;28;20471;-44
2022/10/09 04:00:07;;;;;;;11.90;5.00;;;6.90;99.90;;;;;;5090412;28;20463;-45
2022/10/09 04:02:33;;;;;;;12.07;4.80;;;6.70;99.90;;;;;;5089877;28;20051;-43
2022/10/09 04:04:59;;;;;;;12.93;5.15;;;6.90;99.90;;;;;;5090143;28;20040;-43
2022/10/09 04:07:25;;;;;;;8.75;4.68;;;6.90;99.90;;;;;;5088364;28;20044;-43
2022/10/09 04:09:50;;;;;;;9.43;4.75;;;6.70;99.90;;;;;;5089900;28;20398;-44
2022/10/09 04:12:16;;;;;;;11.45;4.78;;;6.70;99.90;;;;;;5090252;28;20076;-44
2022/10/09 04:14:42;;;;;;;10.95;4.65;;;6.60;99.90;;;;;;5090073;28;20060;-43
2022/10/09 04:17:07;;;;;;;13.23;5.85;;;6.80;99.90;;;;;;5089957;28;20028;-44
2022/10/09 04:19:33;;;;;;;9.07;5.05;;;6.80;99.90;;;;;;5090291;28;20039;-46
2022/10/09 04:21:59;;;;;;;8.90;5.38;;;6.60;99.90;;;;;;5089677;28;20070;-43
2022/10/09 04:24:25;;;;;;;9.60;5.43;;;6.60;99.90;;;;;;5088588;28;20039;-45
2022/10/09 04:26:50;;;;;;;12.00;5.60;;;6.60;99.90;;;;;;5089938;28;20040;-43
2022/10/09 04:29:16;;;;;;;13.02;5.38;;;6.70;99.90;;;;;;5089387;28;20039;-44
2022/10/09 04:31:42;;;;;;;12.65;5.80;;;6.80;99.90;;;;;;5089611;28;20059;-46
2022/10/09 04:34:08;;;;;;;9.73;5.13;;;6.70;99.90;;;;;;5088366;28;20115;-45
2022/10/09 04:36:33;;;;;;;13.00;5.38;;;6.70;99.90;;;;;;5089878;28;20498;-46
2022/10/09 04:38:59;;;;;;;11.63;5.78;;;6.70;99.90;;;;;;5089332;28;20078;-46
2022/10/09 04:41:24;;;;;;;11.27;5.43;;;6.70;99.90;;;;;;5089727;28;20032;-47
2022/10/09 04:43:55;;;;;;;10.48;6.32;;;6.40;99.90;;;;;;5091477;28;20043;-44
2022/10/09 04:46:21;;;;;;;9.13;5.97;;;6.60;99.90;;;;;;5093728;28;20504;-43
2022/10/09 04:48:47;;;;;;;11.05;6.05;;;6.50;99.90;;;;;;5093320;28;20035;-44
2022/10/09 04:51:14;;;;;;;9.82;5.43;;;6.80;99.90;;;;;;5093160;28;20044;-44
2022/10/09 04:53:40;;;;;;;14.02;6.28;;;6.60;99.90;;;;;;5092295;28;20119;-44
2022/10/09 04:56:15;;;;;;;10.70;5.65;;;6.40;99.90;;;;;;5093550;28;20039;-43
2022/10/09 04:58:41;;;;;;;9.95;5.82;;;6.50;99.90;;;;;;5093655;28;20131;-44
2022/10/09 05:01:13;;;;;;;11.00;5.93;;;6.50;99.90;;;;;;5093179;28;20043;-43
2022/10/09 05:03:39;;;;;;;12.20;5.90;;;6.70;99.90;;;;;;5093370;28;20456;-44
2022/10/09 05:06:07;;;;;;;10.85;6.38;;;6.30;99.90;;;;;;5093444;28;20046;-47
2022/10/09 05:08:34;;;;;;;15.98;6.35;;;6.30;99.90;;;;;;5092926;28;20378;-42
2022/10/09 05:11:01;;;;;;;13.07;6.28;;;6.40;99.90;;;;;;5092933;28;20043;-44
2022/10/09 05:13:33;;;;;;;12.70;6.32;;;6.30;99.90;;;;;;5092979;28;20029;-45
2022/10/09 05:16:04;;;;;;;11.00;6.40;;;6.20;99.90;;;;;;5093068;28;20032;-44
2022/10/09 05:18:30;;;;;;;9.57;6.53;;;6.50;99.90;;;;;;5092726;28;20040;-44
2022/10/09 05:20:56;;;;;;;13.50;6.50;;;6.50;99.90;;;;;;5092844;28;20032;-46
2022/10/09 05:23:22;;;;;;;15.05;6.85;;;6.20;99.90;;;;;;5091456;28;20127;-42
2022/10/09 05:25:59;;;;;;;13.85;6.53;;;6.10;99.90;;;;;;5092877;28;20036;-42
2022/10/09 05:28:25;;;;;;;15.10;6.80;;;6.40;99.90;;;;;;5092899;28;20494;-43
2022/10/09 05:30:51;;;;;;;15.82;7.20;;;6.20;99.90;;;;;;5092316;28;20130;-43
2022/10/09 05:33:17;;;;;;;13.63;7.03;;;6.40;99.90;;;;;;5092664;28;20093;-47
2022/10/09 05:35:54;;;;;;;17.20;6.43;;;6.20;99.90;;;;;;5092755;28;20036;-44
2022/10/09 05:38:21;;;;;;;16.08;7.03;;;6.40;99.90;;;;;;5092124;28;20433;-45
2022/10/09 05:40:54;;;;;;;13.63;6.82;;;6.40;99.90;;;;;;5092566;28;20040;-44
2022/10/09 05:43:22;;;;;;;15.55;7.10;;;6.10;99.90;;;;;;5092711;28;20044;-43
2022/10/09 05:45:48;;;;;;;14.68;6.85;;;6.10;99.90;;;;;;5092444;28;20032;-45
2022/10/09 05:48:14;;;;;;;12.23;6.93;;;6.20;99.90;;;;;;5092454;28;20036;-44
2022/10/09 05:50:39;;;;;;;13.05;6.82;;;6.50;99.90;;;;;;5092052;28;20329;-45
2022/10/09 05:53:05;;;;;;;17.92;7.68;;;6.20;99.90;;;;;;5092517;28;20039;-45
2022/10/09 05:55:31;;;;;;;11.18;6.93;;;6.20;99.90;;;;;;5091386;28;20040;-44
2022/10/09 05:57:56;;;;;;;14.00;6.90;;;6.10;99.90;;;;;;5092481;28;20067;-44
2022/10/09 06:00:22;;;;;;;11.75;7.07;;;6.20;99.90;;;;;;5092386;28;20039;-43
2022/10/09 06:02:48;;;;;;;14.52;6.45;;;6.10;99.90;;;;;;5091944;28;20040;-44
2022/10/09 06:05:14;;;;;;;15.65;7.18;;;6.40;99.90;;;;;;5092035;28;20044;-45
2022/10/09 06:07:39;;;;;;;16.00;7.68;;;6.10;99.90;;;;;;5091796;28;20046;-44
2022/10/09 06:10:06;;;;;;;14.35;6.55;;;6.10;99.90;;;;;;5092060;28;20028;-45
2022/10/09 06:12:31;;;;;;;14.40;7.07;;;6.20;99.90;;;;;;5092093;28;20036;-45
2022/10/09 06:14:57;;;;;;;14.75;6.90;;;6.10;99.90;;;;;;5092120;28;20032;-44
2022/10/09 06:17:23;;;;;;;13.85;6.75;;;6.10;99.90;;;;;;5091805;28;20032;-46
2022/10/09 06:19:48;;;;;;;11.27;6.60;;;6.30;99.90;;;;;;5091956;28;20060;-43
2022/10/09 06:22:14;;;;;;;13.25;6.93;;;6.30;99.90;;;;;;5091952;28;20165;-44
2022/10/09 06:24:40;;;;;;;17.45;6.70;;;6.10;99.90;;;;;;5090496;28;20044;-46
2022/10/09 06:27:05;;;;;;;13.85;6.90;;;6.20;99.90;;;;;;5091760;28;20114;-43
2022/10/09 06:29:31;;;;;;;11.23;6.68;;;6.40;99.90;;;;;;5091737;28;20403;-50
2022/10/09 06:31:57;;;;;;;11.93;6.70;;;6.20;99.90;;;;;;5090116;28;20507;-44
2022/10/09 06:34:22;;;;;;;15.82;7.05;;;6.40;99.90;;;;;;5091286;28;20118;-45
2022/10/09 06:36:48;;;;;;;16.65;7.05;;;6.30;99.90;;;;;;5090918;28;20032;-45
2022/10/09 06:39:14;;;;;;;15.60;7.10;;;6.20;99.90;;;;;;5091306;28;20065;-42
2022/10/09 06:41:39;;;;;;;13.32;7.45;;;6.20;99.90;;;;;;5091136;28;20115;-44
2022/10/09 06:44:09;;;;;;;13.05;7.55;;;6.30;99.90;;;;;;5091335;28;20040;-46
2022/10/09 06:46:39;;;;;;;13.38;6.57;;;6.20;99.90;;;;;;5091574;28;20040;-43
2022/10/09 06:49:07;;;;;;;17.27;7.40;;;6.30;99.90;;;;;;5091442;28;20483;-44
2022/10/09 06:51:33;;;;;;;16.83;8.10;;;6.40;99.90;;;;;;5091323;28;20045;-47
2022/10/09 06:54:01;;;;;;;15.52;7.68;;;6.30;99.90;;;;;;5091224;28;20096;-45
2022/10/09 06:56:29;;;;;;;17.45;8.05;;;6.40;99.90;;;;;;5090828;28;20031;-42
2022/10/09 06:58:57;;;;;;;19.85;7.72;;;6.60;99.90;;;;;;5091268;28;20028;-44
2022/10/09 07:01:30;;;;;;;16.40;7.75;;;6.70;99.90;;;;;;5091157;28;20051;-45
2022/10/09 07:04:10;;;;;;;16.27;8.23;;;6.50;99.90;;;;;;5091072;28;20071;-46
2022/10/09 07:06:38;;;;;;;14.43;7.38;;;6.70;99.90;;;;;;5089245;28;20071;-44
2022/10/09 07:09:07;;;;;;;16.88;8.10;;;6.70;99.90;;;;;;5090522;28;20549;-44
2022/10/09 07:11:38;;;;;;;15.85;8.57;;;6.70;99.90;;;;;;5091000;28;20536;-44
2022/10/09 07:14:07;;;;;;;19.05;9.00;;;6.90;99.90;;;;;;5089224;28;20023;-45
2022/10/09 07:16:38;;;;;;;17.15;9.27;;;7.00;99.90;;;;;;5090919;28;20039;-47
2022/10/09 07:19:07;;;;;;;15.52;8.40;;;7.10;99.90;;;;;;5090845;28;20028;-45
2022/10/09 07:21:36;;;;;;;14.88;9.30;;;6.90;99.90;;;;;;5089516;28;20040;-44
2022/10/09 07:24:03;;;;;;;14.98;8.93;;;7.00;99.90;;;;;;5089612;28;20044;-45
2022/10/09 07:26:33;;;;;;;18.75;9.77;;;7.10;99.90;;;;;;5090804;28;20070;-46
2022/10/09 07:29:00;;;;;;;17.65;9.55;;;7.30;99.90;;;;;;5090793;28;20086;-48
2022/10/09 07:31:26;;;;;;;20.52;9.82;;;7.10;99.90;;;;;;5090338;28;20188;-48
2022/10/09 07:33:54;;;;;;;19.77;9.20;;;7.20;99.90;;;;;;5089516;28;20063;-46
2022/10/09 07:36:20;;;;;;;14.80;9.15;;;7.50;99.90;;;;;;5090328;28;20044;-44
2022/10/09 07:38:51;;;;;;;17.17;9.32;;;7.60;99.90;;;;;;5088793;28;20038;-42
2022/10/09 07:41:17;;;;;;;19.95;9.23;;;7.40;99.90;;;;;;5090434;28;20073;-45
2022/10/09 07:43:42;;;;;;;15.40;9.98;;;7.80;99.90;;;;;;5090609;28;20131;-43
2022/10/09 07:46:13;;;;;;;20.52;9.60;;;7.60;99.90;;;;;;5090328;28;20162;-46
2022/10/09 07:48:39;;;;;;;17.70;9.52;;;7.80;99.90;;;;;;5088720;28;20028;-43
2022/10/09 07:51:25;;;;;;;17.60;9.15;;;8.00;99.90;;;;;;5089964;28;20035;-45
2022/10/09 07:53:52;;;;;;;19.38;10.25;;;8.00;99.90;;;;;;5090184;28;20036;-44
2022/10/09 07:56:20;;;;;;;21.73;9.27;;;8.00;99.90;;;;;;5090429;28;20039;-48
2022/10/09 07:58:53;;;;;;;17.40;10.75;;;8.10;99.90;;;;;;5090152;28;20036;-46
2022/10/09 08:01:21;;;;;;;15.65;10.05;;;8.30;99.90;;;;;;5090174;28;20047;-45
2022/10/09 08:03:47;;;;;;;17.58;10.90;;;8.10;99.90;;;;;;5090158;28;20035;-45
2022/10/09 08:06:14;;;;;;;17.13;10.50;;;8.20;99.90;;;;;;5090286;28;20535;-44
2022/10/09 08:08:39;;;;;;;18.65;11.07;;;8.30;99.90;;;;;;5089912;28;20040;-43
2022/10/09 08:11:14;;;;;;;21.23;10.88;;;8.40;99.90;;;;;;5089830;28;20510;-44
2022/10/09 08:13:41;;;;;;;20.25;10.35;;;8.70;99.90;;;;;;5090282;28;20036;-43
2022/10/09 08:16:07;;;;;;;20.38;11.15;;;8.60;99.90;;;;;;5090155;28;20036;-43
2022/10/09 08:18:34;;;;;;;21.40;11.15;;;9.00;99.90;;;;;;5092950;28;20043;-46
2022/10/09 08:21:03;;;;;;;18.67;10.20;;;8.80;99.90;;;;;;5094017;28;20088;-47
2022/10/09 08:23:29;;;;;;;19.05;10.60;;;9.20;99.90;;;;;;5094315;28;20032;-46
2022/10/09 08:25:55;;;;;;;23.15;11.18;;;9.20;99.90;;;;;;5094106;28;20032;-42
2022/10/09 08:28:21;;;;;;;19.63;10.30;;;9.30;99.90;;;;;;5094109;28;20282;-44
2022/10/09 08:30:47;;;;;;;18.83;9.55;;;9.30;99.90;;;;;;5093780;28;20059;-43
2022/10/09 08:33:13;;;;;;;20.60;9.90;;;9.30;99.90;;;;;;5093763;28;20036;-44
2022/10/09 08:35:39;;;;;;;19.92;9.52;;;9.50;99.90;;;;;;5094100;28;20470;-45
2022/10/09 08:38:04;;;;;;;19.08;9.30;;;9.80;99.90;;;;;;5093666;28;20098;-43
2022/10/09 08:40:55;;;;;;;14.80;9.23;;;9.70;99.90;;;;;;5093580;28;20412;-43
2022/10/09 08:43:38;;;;;;;16.02;9.48;;;10.10;99.90;;;;;;5093599;28;20505;-44
2022/10/09 08:46:13;;;;;;;19.27;9.43;;;10.00;99.90;;;;;;5093626;28;20360;-43
2022/10/09 08:48:43;;;;;;;17.75;8.77;;;10.40;99.90;;;;;;5093835;28;20043;-43
2022/10/09 08:51:34;;;;;;;14.90;8.05;;;10.50;99.90;;;;;;5093582;28;20040;-45
2022/10/09 08:54:21;;;;;;;19.80;8.15;;;10.50;99.90;;;;;;5093701;28;20036;-43
2022/10/09 08:56:49;;;;;;;14.98;7.25;;;10.70;99.90;;;;;;5094049;28;20032;-46
2022/10/09 08:59:15;;;;;;;17.80;8.30;;;10.90;99.90;;;;;;5093348;28;20036;-43
2022/10/09 09:01:47;;;;;;;16.90;7.07;;;11.00;99.90;;;;;;5093326;28;20093;-43
2022/10/09 09:04:39;;;;;;;17.83;6.80;;;11.20;99.90;;;;;;5093134;28;20040;-43
2022/10/09 09:07:34;;;;;;;16.38;6.47;;;11.30;99.90;;;;;;5092688;28;20061;-45
2022/10/09 09:10:31;;;;;;;14.18;6.40;;;11.40;99.90;;;;;;5093350;28;20464;-45
2022/10/09 09:13:19;;;;;;;14.35;6.68;;;11.50;99.90;;;;;;5089707;28;20110;-43
2022/10/09 09:16:05;;;;;;;12.98;5.50;;;11.60;99.90;;;;;;5092076;28;20028;-45
2022/10/09 09:18:54;;;;;;;12.05;5.70;;;11.80;99.90;;;;;;5093069;28;20059;-46
2022/10/09 09:21:43;;;;;;;10.90;5.28;;;11.90;99.90;;;;;;5092995;28;20058;-44
2022/10/09 09:24:17;;;;;;;8.43;4.78;;;12.00;99.90;;;;;;5091791;28;20072;-45
2022/10/09 09:26:46;;;;;;;13.93;5.15;;;12.10;99.90;;;;;;5093149;28;20111;-47
2022/10/09 09:29:16;;;;;;;10.07;4.57;;;12.60;99.90;;;;;;5092462;28;20044;-45
2022/10/09 09:31:45;;;;;;;10.45;5.20;;;12.20;99.90;;;;;;5092305;28;20052;-47
2022/10/09 09:34:26;;;;;;;13.65;5.65;;;12.30;99.90;;;;;;5091688;28;20586;-47
2022/10/09 09:36:56;;;;;;;14.35;5.18;;;12.50;99.90;;;;;;5092857;28;20107;-44
2022/10/09 09:39:24;;;;;;;15.60;5.28;;;12.60;99.90;;;;;;5091130;28;20043;-46
2022/10/09 09:41:51;;;;;;;13.93;5.30;;;12.70;99.90;;;;;;5092847;28;20169;-46
2022/10/09 09:44:18;;;;;;;13.25;5.45;;;12.70;99.90;;;;;;5092672;28;20052;-48
2022/10/09 09:46:46;;;;;;;10.43;5.10;;;12.90;99.90;;;;;;5092739;28;20040;-44
2022/10/09 09:49:17;;;;;;;15.40;4.95;;;12.90;99.90;;;;;;5092541;28;21561;-45
2022/10/09 09:51:44;;;;;;;12.02;5.20;;;12.90;99.90;;;;;;5092224;28;20675;-45
2022/10/09 09:54:24;;;;;;;13.05;4.90;;;12.90;99.90;;;;;;5092170;28;20117;-46
2022/10/09 09:56:52;;;;;;;13.98;5.47;;;13.00;99.90;;;;;;5092614;28;20519;-47
2022/10/09 09:59:37;;;;;;;16.83;6.10;;;13.10;99.90;;;;;;5092170;28;20425;-46
2022/10/09 10:02:03;;;;;;;;;;;13.10;99.90;;;;;;5092543;28;20491;-45
2022/10/09 10:04:28;;;;;;;14.25;5.40;;;13.10;99.90;;;;;;5091861;28;19926;-44
2022/10/09 10:06:54;;;;;;;16.25;6.03;;;13.10;99.90;;;;;;5092075;28;20035;-44
2022/10/09 10:09:21;;;;;;;14.88;5.50;;;13.30;99.90;;;;;;5091988;28;20539;-47
2022/10/09 10:11:55;;;;;;;12.98;6.00;;;13.30;99.90;;;;;;5091723;28;20043;-46
2022/10/09 10:14:21;;;;;;;16.20;6.03;;;13.40;99.90;;;;;;5091844;28;20075;-47
2022/10/09 10:16:49;;;;;;;14.57;5.82;;;13.50;99.90;;;;;;5092151;28;20126;-44
2022/10/09 10:19:34;;;;;;;16.40;5.85;;;13.60;99.90;;;;;;5091864;28;20071;-44
2022/10/09 10:22:01;;;;;;;13.90;6.40;;;13.60;99.90;;;;;;5091968;28;20547;-45
2022/10/09 10:24:42;;;;;;;13.90;5.93;;;13.80;99.90;;;;;;5089997;28;20051;-45
2022/10/09 10:27:28;;;;;;;14.90;4.93;;;14.00;99.90;;;;;;5091852;28;20471;-43
2022/10/09 10:29:59;;;;;;;14.85;5.45;;;14.10;99.90;;;;;;5091819;28;20126;-45
2022/10/09 10:32:38;;;;;;;12.40;5.07;;;14.40;99.90;;;;;;5091216;28;20089;-45
2022/10/09 10:35:15;;;;;;;13.70;5.15;;;14.40;99.90;;;;;;5091771;28;20074;-46
2022/10/09 10:38:18;;;;;;;11.90;4.55;;;14.40;99.90;;;;;;5090896;28;20044;-46
2022/10/09 10:40:49;;;;;;;11.88;4.40;;;14.50;99.90;;;;;;5089389;28;20043;-46
2022/10/09 10:43:24;;;;;;;11.50;4.30;;;14.70;99.90;;;;;;5091615;28;20040;-45
2022/10/09 10:46:09;;;;;;;11.68;4.00;;;14.70;99.90;;;;;;5091476;28;20044;-45
2022/10/09 10:48:46;;;;;;;9.57;3.58;;;14.80;99.90;;;;;;5091696;28;20078;-46
2022/10/09 10:51:14;;;;;;;10.85;4.05;;;14.80;99.90;;;;;;5091308;28;20118;-48
2022/10/09 10:53:50;;;;;;;11.70;3.95;;;14.80;99.90;;;;;;5091428;28;20043;-45
2022/10/09 10:56:28;;;;;;;9.82;3.53;;;14.90;99.90;;;;;;5090815;28;20036;-44
2022/10/09 10:58:57;;;;;;;11.43;3.67;;;14.90;99.90;;;;;;5091035;28;20039;-46
2022/10/09 11:01:43;;;;;;;11.05;3.80;;;15.10;99.90;;;;;;5091073;28;20118;-44
2022/10/09 11:04:40;;;;;;;13.27;4.22;;;15.10;99.90;;;;;;5089054;28;20052;-45
2022/10/09 11:07:20;;;;;;;12.40;4.28;;;15.20;99.90;;;;;;5090230;28;20040;-45
2022/10/09 11:10:20;;;;;;;11.90;3.83;;;15.30;99.90;;;;;;5091074;28;20082;-48
2022/10/09 11:13:12;;;;;;;7.72;2.53;;;15.40;99.90;;;;;;5089357;28;20040;-45
2022/10/09 11:16:00;;;;;;;8.85;2.60;;;15.50;99.90;;;;;;5088071;28;20032;-48
2022/10/09 11:18:57;;;;;;;9.52;2.65;;;15.60;99.90;;;;;;5089391;28;20036;-48
2022/10/09 11:21:54;;;;;;;7.63;2.50;;;15.80;99.90;;;;;;5089409;28;20122;-46
2022/10/09 11:24:47;;;;;;;8.43;2.45;;;15.90;99.90;;;;;;5090874;28;20063;-45
2022/10/09 11:27:38;;;;;;;7.10;2.47;;;16.00;99.90;;;;;;5090771;28;20028;-46
2022/10/09 11:30:12;;;;;;;7.07;2.40;;;16.20;99.90;;;;;;5089834;28;20043;-48
2022/10/09 11:32:45;;;;;;;6.35;2.25;;;16.30;99.90;;;;;;5090271;28;20054;-44
2022/10/09 11:35:11;;;;;;;5.85;2.15;;;16.30;99.90;;;;;;5090458;28;20082;-45
2022/10/09 11:37:40;;;;;;;9.25;2.80;;;16.50;99.90;;;;;;5089897;28;20314;-46
2022/10/09 11:40:15;;;;;;;7.28;2.72;;;16.50;99.90;;;;;;5090517;28;20401;-46
2022/10/09 11:42:42;;;;;;;7.80;2.63;;;16.60;99.90;;;;;;5089071;28;20048;-46
2022/10/09 11:45:27;;;;;;;9.43;2.60;;;16.70;99.90;;;;;;5090525;28;20043;-46
2022/10/09 11:48:08;;;;;;;8.07;2.80;;;16.90;99.90;;;;;;5090147;28;21199;-45
2022/10/09 11:50:59;;;;;;;8.35;2.58;;;17.00;99.90;;;;;;5090506;28;20113;-47
2022/10/09 11:53:29;;;;;;;9.50;3.13;;;17.20;99.90;;;;;;5089089;28;20042;-44
2022/10/09 11:56:06;;;;;;;10.20;2.75;;;17.30;99.90;;;;;;5090314;28;20111;-45
2022/10/09 11:58:32;;;;;;;11.45;2.92;;;17.40;99.90;;;;;;5090319;28;20024;-48
2022/10/09 12:01:11;;;;;;;9.30;3.13;;;17.60;99.90;;;;;;5090633;28;20534;-47
2022/10/09 12:03:38;;;;;;;9.38;2.90;;;17.70;99.90;;;;;;5090532;28;20558;-46
2022/10/09 12:06:16;;;;;;;9.50;2.40;;;18.00;99.90;;;;;;5090137;28;20028;-46
2022/10/09 12:08:54;;;;;;;9.38;2.50;;;17.90;99.90;;;;;;5089461;28;20040;-46
2022/10/09 12:11:22;;;;;;;9.82;2.53;;;17.90;99.90;;;;;;5090189;28;20188;-46
2022/10/09 12:13:52;;;;;;;8.80;2.42;;;17.90;99.90;;;;;;5090169;28;20028;-46
2022/10/09 12:16:37;;;;;;;9.70;2.63;;;17.70;99.90;;;;;;5088890;28;20483;-45
2022/10/09 12:19:23;;;;;;;10.07;2.63;;;17.60;99.90;;;;;;5090113;28;20032;-44
2022/10/09 12:22:04;;;;;;;5.68;2.05;;;17.50;99.90;;;;;;5089601;28;20155;-45
2022/10/09 12:24:39;;;;;;;8.00;2.60;;;17.60;99.90;;;;;;5090116;28;20036;-44
2022/10/09 12:27:06;;;;;;;8.15;2.60;;;17.70;99.90;;;;;;5090124;28;20093;-45
2022/10/09 12:29:43;;;;;;;11.40;3.15;;;17.90;99.90;;;;;;5089642;28;20087;-48
2022/10/09 12:32:19;;;;;;;8.27;2.72;;;18.10;99.90;;;;;;5088866;28;20048;-46
2022/10/09 12:34:48;;;;;;;10.52;2.75;;;18.20;99.90;;;;;;5089967;28;20428;-47
2022/10/09 12:37:20;;;;;;;10.57;2.85;;;18.20;99.90;;;;;;5089699;28;20061;-49
2022/10/09 12:39:47;;;;;;;11.57;3.13;;;18.30;99.90;;;;;;5089905;28;20063;-44
2022/10/09 12:42:31;;;;;;;8.25;2.40;;;18.50;99.90;;;;;;5089864;28;20487;-44
2022/10/09 12:44:57;;;;;;;7.78;2.40;;;18.80;99.90;;;;;;5089841;28;20127;-47
2022/10/09 12:47:26;;;;;;;7.88;3.03;;;18.80;99.90;;;;;;5089904;28;20131;-46
2022/10/09 12:50:25;;;;;;;10.55;3.47;;;18.90;99.60;;;;;;5088516;28;20376;-45
2022/10/09 12:52:56;;;;;;;10.50;3.00;;;19.00;99.80;;;;;;5089547;28;20079;-44
2022/10/09 12:55:56;;;;;;;8.82;3.03;;;19.20;99.90;;;;;;5089677;28;20185;-46
2022/10/09 12:58:24;;;;;;;11.30;2.60;;;19.30;98.70;;;;;;5087089;28;20085;-48
2022/10/09 13:00:53;;;;;;;9.65;3.20;;;19.20;99.40;;;;;;5089435;28;20067;-46
2022/10/09 13:03:23;;;;;;;8.23;2.38;;;19.30;99.60;;;;;;5090162;28;20040;-48
2022/10/09 13:05:49;;;;;;;9.25;2.88;;;19.30;98.70;;;;;;5092997;28;20067;-45